1930 Tropical Cyclone NOT_NAMED (1930028S17150)


IBTrACS version v04r00. Visit IBTrACS website for data access.
Please direct all questions to the IBTrACS Q and A forum

Storm track - Intensity - Wind Radii - Intensity Data - Source Data - All data

Summary Information

Storm ID 1930028S17150
Start Jan 27 23Z
Max Intensity 45 kt (Jan 30 00Z), 992 mb (Jan 29 23Z)
End Jan 31 23Z
ATCF IDs
Track status Best track data.

Storm track plot

Map of storm track

Intensity plots

Map of storm track

Radial wind information

No radial wind information for this storm


Position and Intensity Table

BASIN ISO_TIME_________ NATURE LAT LON WMO PRES BOM PRES DS824 WIND DS824 PRES
degrees north degrees east mb mb kts mb
SP 1930-01-27 23:00:00 NR -17.00 150.15
SP 1930-01-28 00:00:00 TS -17.00 150.07
SP 03:00:00 TS -17.05 149.80
SP 06:00:00 TS -17.11 149.54
SP 09:00:00 TS -17.18 149.29
SP 11:00:00 TS -17.24 149.13
SP 12:00:00 TS -17.27 149.06
SP 15:00:00 TS -17.40 148.87
SP 18:00:00 TS -17.58 148.74
SP 21:00:00 TS -17.83 148.68
SP 23:00:00 TS -18.06 148.69
SP 1930-01-29 00:00:00 TS -18.19 148.71
SP 03:00:00 TS -18.66 148.83
SP 05:00:00 TS -18.98 148.96
SP 06:00:00 TS -19.14 149.03
SP 09:00:00 TS -19.58 149.28
SP 11:00:00 TS -19.85 149.48
SP 12:00:00 TS -19.97 149.59
SP 15:00:00 TS -20.30 149.96
SP 18:00:00 TS -20.59 150.37
SP 21:00:00 TS -20.84 150.77
SP 23:00:00 TS -20.98 151.03 992 992
SP 1930-01-30 00:00:00 TS -21.04 151.14 45 992
SP 03:00:00 TS -21.21 151.45
SP 06:00:00 TS -21.34 151.74
SP 09:00:00 TS -21.45 152.01
SP 11:00:00 TS -21.52 152.19
SP 12:00:00 TS -21.56 152.28
SP 15:00:00 TS -21.66 152.54
SP 18:00:00 TS -21.77 152.80
SP 21:00:00 TS -21.90 153.07
SP 23:00:00 TS -21.99 153.26
SP 1930-01-31 00:00:00 TS -22.05 153.37
SP 03:00:00 NR -22.27 153.74
SP 06:00:00 NR -22.50 154.15
SP 09:00:00 NR -22.75 154.58
SP 11:00:00 NR -22.91 154.88
SP 12:00:00 NR -22.99 155.02
SP 15:00:00 NR -23.23 155.47
SP 18:00:00 NR -23.47 155.91
SP 21:00:00 NR -23.70 156.35
SP 23:00:00 NR -23.85 156.65

Source Information

Agency Information
USA
TOKYO
CMA
HKO
NEWDELHI
REUNION
BOM IDCKMSTM0S.csv:Line=728:unnamed
NADI
WELLINGTON
DS824 aus_area.dat:71:NOT NAMED
TD9636 cons_worldwide_trop_cyclone_18710101-19891231-006:Line=1793
TD9635
NEUMANN
MLC

All available IBTrACS Data

SEASON BASIN SUBBASIN ISO_TIME_________ NATURE LAT LON WMO PRES WMO AGENCY DIST2LAND LANDFALL IFLAG USA SSHS BOM LAT BOM LON BOM PRES BOM PRES_METHOD DS824 LAT DS824 LON DS824 STAGE DS824 WIND DS824 PRES TD9636 LAT TD9636 LON TD9636 STAGE STORM SPEED STORM DIR
Year degrees north degrees east mb km km 1 degrees north degrees east mb degrees north degrees east kts mb degrees north degrees east kts degrees
1930 SP EA 1930-01-27 23:00:00 NR -17.00 150.15 bom 390 385 ______O___O___ -1 -16.90 150.20 -17.10 150.10 7 5 272
1930 SP EA 1930-01-28 00:00:00 TS -17.00 150.07 385 369 ______P__OP___ -1 -16.89 150.09 -16.90 150.10 TC -17.15 150.04 7 5 261
1930 SP EA 03:00:00 TS -17.05 149.80 360 346 ______P__PP___ -1 -16.88 149.76 -16.94 149.80 TC -17.29 149.85 7 5 257
1930 SP EA 06:00:00 TS -17.11 149.54 339 317 ______P__PP___ -1 -16.89 149.44 -16.99 149.51 TC -17.43 149.65 7 5 255
1930 SP EA 09:00:00 TS -17.18 149.29 317 304 ______P__PP___ -1 -16.93 149.16 -17.07 149.25 TC -17.54 149.45 7 5 252
1930 SP EA 11:00:00 TS -17.24 149.13 304 295 ______P__PO___ -1 -16.98 149.00 -17.14 149.10 TC -17.60 149.30 7 5 247
1930 SP EA 12:00:00 TS -17.27 149.06 295 274 ______P__PP___ -1 -17.02 148.93 -17.18 149.03 TC -17.62 149.22 7 4 238
1930 SP EA 15:00:00 TS -17.40 148.87 274 243 ______P__PP___ -1 -17.17 148.76 -17.34 148.86 TC -17.69 148.99 7 4 226
1930 SP EA 18:00:00 TS -17.58 148.74 243 225 ______P__PP___ -1 -17.40 148.66 -17.55 148.76 TC -17.78 148.79 7 5 203
1930 SP EA 21:00:00 TS -17.83 148.68 225 208 ______P__PP___ -1 -17.73 148.65 -17.83 148.73 TC -17.94 148.65 7 6 184
1930 SP EA 23:00:00 TS -18.06 148.69 bom 199 191 ______O__PO___ -1 -18.00 148.70 -18.07 148.77 TC -18.10 148.60 7 7 173
1930 SP EA 1930-01-29 00:00:00 TS -18.19 148.71 191 165 ______P__OP___ -1 -18.16 148.74 -18.20 148.80 TC -18.22 148.59 7 9 167
1930 SP EA 03:00:00 TS -18.66 148.83 154 128 ______P__PP___ -1 -18.66 148.94 -18.64 148.96 TC -18.66 148.60 7 10 163
1930 SP EA 05:00:00 TS -18.98 148.96 bom 133 124 ______O__PP___ -1 -19.00 149.10 -18.95 149.12 TC -19.00 148.66 7 10 159
1930 SP EA 06:00:00 TS -19.14 149.03 124 94 ______P__OP___ -1 -19.15 149.18 -19.10 149.20 TC -19.17 148.71 7 10 153
1930 SP EA 09:00:00 TS -19.58 149.28 94 83 ______P__PP___ -1 -19.57 149.47 -19.50 149.47 TC -19.69 148.91 7 10 149
1930 SP EA 11:00:00 TS -19.85 149.48 92 85 ______P__PO___ -1 -19.81 149.68 -19.74 149.67 TC -20.00 149.10 7 10 143
1930 SP EA 12:00:00 TS -19.97 149.59 89 89 ______P__PP___ -1 -19.93 149.79 -19.85 149.78 TC -20.13 149.21 7 10 135
1930 SP EA 15:00:00 TS -20.30 149.96 116 114 ______P__PP___ -1 -20.25 150.14 -20.16 150.12 TC -20.50 149.63 7 10 131
1930 SP EA 18:00:00 TS -20.59 150.37 136 136 ______P__PP___ -1 -20.52 150.50 -20.44 150.48 TC -20.81 150.11 7 9 125
1930 SP EA 21:00:00 TS -20.84 150.77 169 159 ______P__PP___ -1 -20.76 150.87 -20.68 150.85 TC -21.06 150.60 7 9 122
1930 SP EA 23:00:00 TS -20.98 151.03 992 bom 159 159 ______O__PO___ -1 -20.90 151.10 992 4 -20.83 151.08 TC -21.20 150.90 7 8 121
1930 SP EA 1930-01-30 00:00:00 TS -21.04 151.14 161 152 ______P__OP___ -1 -20.97 151.20 -20.90 151.20 TC 45 992 -21.26 151.02 7 7 120
1930 SP EA 03:00:00 TS -21.21 151.45 157 154 ______P__PP___ -1 -21.14 151.47 -21.09 151.53 TC -21.39 151.35 7 6 118
1930 SP EA 06:00:00 TS -21.34 151.74 160 159 ______P__PP___ -1 -21.28 151.73 -21.26 151.84 TC -21.48 151.65 7 6 115
1930 SP EA 09:00:00 TS -21.45 152.01 166 166 ______P__PP___ -1 -21.40 151.99 -21.41 152.13 TC -21.55 151.92 7 5 114
1930 SP EA 11:00:00 TS -21.52 152.19 182 182 ______P__PO___ -1 -21.46 152.16 -21.50 152.31 TC -21.60 152.10 7 5 113
1930 SP EA 12:00:00 TS -21.56 152.28 184 184 ______P__PP___ -1 -21.50 152.25 -21.55 152.40 TC -21.63 152.19 7 5 114
1930 SP EA 15:00:00 TS -21.66 152.54 196 196 ______P__PP___ -1 -21.59 152.51 -21.67 152.66 TC -21.73 152.44 7 5 114
1930 SP EA 18:00:00 TS -21.77 152.80 220 220 ______P__PP___ -1 -21.69 152.79 -21.79 152.91 TC -21.84 152.70 7 5 115
1930 SP EA 21:00:00 TS -21.90 153.07 246 246 ______P__PP___ -1 -21.81 153.09 -21.90 153.16 TC -21.99 152.99 7 6 117
1930 SP EA 23:00:00 TS -21.99 153.26 bom 263 263 ______O__PO___ -1 -21.90 153.30 -21.97 153.32 TC -22.10 153.20 7 6 119
1930 SP EA 1930-01-31 00:00:00 TS -22.05 153.37 271 271 ______P__OP___ -1 -21.95 153.41 -22.00 153.40 TC -22.17 153.32 7 8 121
1930 SP EA 03:00:00 NR -22.27 153.74 279 269 ______P___P___ -1 -22.13 153.77 TC -22.40 153.72 7 9 122
1930 SP EA 06:00:00 NR -22.50 154.15 272 260 ______P___P___ -1 -22.33 154.16 TC -22.67 154.15 7 9 122
1930 SP EA 09:00:00 NR -22.75 154.58 269 259 ______P___P___ -1 -22.56 154.57 TC -22.93 154.60 7 9 122
1930 SP EA 11:00:00 NR -22.91 154.88 267 265 ______P___O___ -1 -22.72 154.86 TC -23.10 154.90 7 10 121
1930 SP EA 12:00:00 NR -22.99 155.02 265 263 ______P___P___ -1 -22.81 155.00 TC -23.18 155.05 7 9 121
1930 SP EA 15:00:00 NR -23.23 155.47 286 279 ______P___P___ -1 -23.07 155.45 TC -23.40 155.48 7 9 120
1930 SP EA 18:00:00 NR -23.47 155.91 301 301 ______P___P___ -1 -23.34 155.91 TC -23.60 155.91 7 9 120
1930 SP EA 21:00:00 NR -23.70 156.35 336 336 ______P___P___ -1 -23.61 156.38 TC -23.78 156.32 7 9 119
1930 SP EA 23:00:00 NR -23.85 156.65 bom 359 ______O___O___ -1 -23.80 156.70 TC -23.90 156.60 7 9 119